Time;durP1;ratioP1;P1;durP2;ratioP2;P2;SDS_P1;SDS_P2;PMS_P1;PMS_P2;Temp;Humidity;BMP_temperature;BMP_pressure;BME280_temperature;BME280_humidity;BME280_pressure;Samples;Min_cycle;Max_cycle;Signal;HPM_P1;HPM_P2
2023/02/06 00:01:43;;;;;;;35.10;6.30;;;6.00;99.90;;;;;;5095015;28;20452;-59
2023/02/06 00:04:10;;;;;;;29.97;5.47;;;6.00;99.90;;;;;;5094332;28;20471;-59
2023/02/06 00:06:37;;;;;;;21.97;5.57;;;6.00;99.90;;;;;;5093543;28;20443;-59
2023/02/06 00:09:04;;;;;;;18.73;5.93;;;6.00;99.90;;;;;;5092897;28;20459;-58
2023/02/06 00:11:31;;;;;;;27.00;5.43;;;6.10;99.90;;;;;;5093465;28;20451;-59
2023/02/06 00:13:59;;;;;;;18.20;5.27;;;6.10;99.90;;;;;;5093739;28;20466;-59
2023/02/06 00:16:28;;;;;;;27.10;6.47;;;6.00;99.90;;;;;;5094481;28;20443;-59
2023/02/06 00:18:56;;;;;;;19.83;5.23;;;6.00;99.90;;;;;;5097343;28;20443;-59
2023/02/06 00:21:24;;;;;;;23.40;5.23;;;6.00;99.90;;;;;;5097296;28;20451;-59
2023/02/06 00:23:53;;;;;;;26.47;5.50;;;6.00;99.90;;;;;;5097015;28;20474;-59
2023/02/06 00:26:20;;;;;;;22.10;4.60;;;6.00;99.90;;;;;;5096772;28;20455;-59
2023/02/06 00:28:47;;;;;;;22.50;4.90;;;6.00;99.90;;;;;;5097057;28;20448;-59
2023/02/06 00:31:15;;;;;;;34.27;5.90;;;6.00;99.90;;;;;;5097032;28;20455;-59
2023/02/06 00:33:42;;;;;;;29.50;6.57;;;6.00;99.90;;;;;;5096771;28;20479;-58
2023/02/06 00:36:10;;;;;;;25.73;5.70;;;6.00;99.90;;;;;;5096937;28;20447;-59
2023/02/06 00:38:37;;;;;;;19.93;5.37;;;6.00;99.90;;;;;;5096866;28;20452;-59
2023/02/06 00:41:04;;;;;;;19.07;4.70;;;5.90;99.90;;;;;;5096734;28;20447;-58
2023/02/06 00:43:30;;;;;;;26.03;5.17;;;5.90;99.90;;;;;;5095401;28;20471;-58
2023/02/06 00:45:58;;;;;;;18.67;4.00;;;5.90;99.90;;;;;;5096740;28;20452;-59
2023/02/06 00:48:26;;;;;;;18.90;5.20;;;5.90;99.90;;;;;;5096697;28;20470;-59
2023/02/06 00:50:53;;;;;;;23.53;5.07;;;5.90;99.90;;;;;;5096553;28;20450;-59
2023/02/06 00:53:21;;;;;;;24.07;5.30;;;5.90;99.90;;;;;;5096329;28;20484;-58
2023/02/06 00:55:47;;;;;;;23.53;5.23;;;5.90;99.90;;;;;;5096262;28;20910;-59
2023/02/06 00:58:14;;;;;;;26.50;4.80;;;5.90;99.90;;;;;;5096518;28;20444;-59
2023/02/06 01:00:41;;;;;;;18.63;5.30;;;5.90;99.90;;;;;;5096163;28;20815;-59
2023/02/06 01:03:08;;;;;;;22.07;5.60;;;5.80;99.70;;;;;;5096243;28;20440;-58
2023/02/06 01:05:36;;;;;;;24.70;5.30;;;5.80;99.60;;;;;;5096411;28;20436;-59
2023/02/06 01:08:03;;;;;;;20.63;4.70;;;5.80;99.60;;;;;;5096391;28;20450;-59
2023/02/06 01:10:29;;;;;;;19.20;4.60;;;5.80;99.60;;;;;;5096218;28;20448;-59
2023/02/06 01:12:56;;;;;;;21.03;4.23;;;5.70;99.50;;;;;;5096036;28;20487;-58
2023/02/06 01:15:23;;;;;;;17.80;4.10;;;5.70;99.50;;;;;;5096006;28;20467;-58
2023/02/06 01:17:50;;;;;;;18.40;5.10;;;5.70;99.40;;;;;;5095821;28;20978;-59
2023/02/06 01:20:17;;;;;;;20.20;4.53;;;5.70;99.40;;;;;;5096151;28;20443;-59
2023/02/06 01:22:45;;;;;;;19.07;4.47;;;5.70;99.40;;;;;;5095931;28;20454;-59
2023/02/06 01:25:11;;;;;;;23.10;5.30;;;5.70;99.30;;;;;;5095918;28;20467;-59
2023/02/06 01:27:38;;;;;;;21.53;4.60;;;5.60;99.20;;;;;;5095154;28;20470;-59
2023/02/06 01:30:07;;;;;;;21.87;5.13;;;5.60;99.00;;;;;;5095385;28;20455;-59
2023/02/06 01:32:37;;;;;;;17.97;4.30;;;5.50;99.00;;;;;;5095446;28;20994;-59
2023/02/06 01:35:04;;;;;;;25.60;4.83;;;5.50;99.00;;;;;;5095649;28;20910;-59
2023/02/06 01:37:31;;;;;;;17.70;4.00;;;5.50;99.00;;;;;;5095766;28;20810;-59
2023/02/06 01:40:00;;;;;;;21.73;5.40;;;5.50;99.00;;;;;;5095608;28;20428;-59
2023/02/06 01:42:26;;;;;;;21.00;5.30;;;5.50;98.90;;;;;;5095655;28;20456;-59
2023/02/06 01:45:27;;;;;;;18.77;4.50;;;5.40;98.80;;;;;;5095394;28;20472;-58
2023/02/06 01:47:57;;;;;;;26.63;5.27;;;5.40;98.80;;;;;;5095518;28;20451;-59
2023/02/06 01:50:24;;;;;;;21.93;6.50;;;5.40;98.90;;;;;;5095487;28;20432;-59
2023/02/06 01:52:51;;;;;;;18.90;5.40;;;5.30;99.00;;;;;;5095023;28;21017;-59
2023/02/06 01:55:19;;;;;;;37.13;6.40;;;5.30;99.10;;;;;;5095334;28;20475;-59
2023/02/06 01:57:46;;;;;;;21.27;4.70;;;5.30;99.40;;;;;;5095379;28;20424;-59
2023/02/06 02:00:13;;;;;;;19.47;4.47;;;5.20;99.40;;;;;;5094924;28;21002;-59
2023/02/06 02:02:43;;;;;;;21.80;4.70;;;5.20;99.50;;;;;;5095450;28;20444;-59
2023/02/06 02:05:12;;;;;;;18.03;5.20;;;5.20;99.70;;;;;;5095153;28;20476;-59
2023/02/06 02:07:45;;;;;;;18.20;5.00;;;5.20;99.70;;;;;;5095186;28;20428;-59
2023/02/06 02:10:13;;;;;;;31.57;6.00;;;5.20;99.80;;;;;;5094752;28;20466;-58
2023/02/06 02:12:41;;;;;;;20.80;5.07;;;5.20;99.80;;;;;;5094917;28;20493;-59
2023/02/06 02:15:08;;;;;;;24.23;6.47;;;5.10;99.80;;;;;;5109760;28;20483;-58
2023/02/06 02:17:43;;;;;;;15.80;4.83;;;5.10;99.90;;;;;;5115374;28;20812;-59
2023/02/06 02:20:42;;;;;;;14.43;4.43;;;5.10;99.90;;;;;;5115032;28;20483;-59
2023/02/06 02:23:20;;;;;;;18.20;5.00;;;5.10;99.90;;;;;;5115274;28;20427;-58
2023/02/06 02:26:31;;;;;;;21.10;5.17;;;5.10;99.90;;;;;;5115041;28;20431;-59
2023/02/06 02:29:42;;;;;;;19.47;5.70;;;5.10;99.90;;;;;;5115183;28;20431;-59
2023/02/06 02:32:52;;;;;;;25.03;5.80;;;5.10;99.90;;;;;;5083907;28;20462;-59
2023/02/06 02:35:27;;;;;;;21.80;5.23;;;5.00;99.90;;;;;;5114932;28;20459;-59
2023/02/06 02:38:04;;;;;;;24.53;5.10;;;5.10;99.90;;;;;;5114984;28;20434;-59
2023/02/06 02:40:39;;;;;;;16.23;4.40;;;5.00;99.90;;;;;;5114589;28;20437;-58
2023/02/06 02:43:14;;;;;;;27.40;5.30;;;5.00;99.90;;;;;;5114389;28;20820;-59
2023/02/06 02:45:45;;;;;;;20.83;6.23;;;5.00;99.90;;;;;;5114550;28;20941;-59
2023/02/06 02:48:15;;;;;;;27.03;5.60;;;5.00;99.90;;;;;;5114824;28;20443;-59
2023/02/06 02:50:44;;;;;;;21.33;4.77;;;5.00;99.90;;;;;;5114528;28;20856;-59
2023/02/06 02:53:12;;;;;;;23.73;5.73;;;5.00;99.90;;;;;;5114538;28;20490;-58
2023/02/06 02:55:38;;;;;;;19.57;5.17;;;5.00;99.90;;;;;;5114643;28;20429;-59
2023/02/06 02:58:08;;;;;;;19.73;4.97;;;5.00;99.90;;;;;;5114568;28;20443;-59
2023/02/06 03:00:39;;;;;;;15.60;4.90;;;5.00;99.90;;;;;;5114587;28;20439;-59
2023/02/06 03:03:09;;;;;;;21.63;4.67;;;5.00;99.90;;;;;;5114442;28;20431;-58
2023/02/06 03:05:42;;;;;;;23.63;6.30;;;4.90;99.90;;;;;;5114504;28;20496;-59
2023/02/06 03:08:19;;;;;;;17.53;4.97;;;4.90;99.90;;;;;;5114324;27;20435;-59
2023/02/06 03:10:57;;;;;;;21.20;6.40;;;4.90;99.80;;;;;;5114644;28;20426;-58
2023/02/06 03:13:30;;;;;;;21.63;4.97;;;4.90;99.80;;;;;;5114157;28;20537;-58
2023/02/06 03:16:05;;;;;;;20.40;4.93;;;4.90;99.80;;;;;;5114317;28;20426;-59
2023/02/06 03:18:36;;;;;;;22.67;4.80;;;4.90;99.80;;;;;;5114279;28;20427;-59
2023/02/06 03:21:05;;;;;;;15.80;4.70;;;4.80;99.80;;;;;;5114149;28;20453;-58
2023/02/06 03:23:39;;;;;;;19.13;5.50;;;4.80;99.90;;;;;;5114116;28;20474;-59
2023/02/06 03:26:10;;;;;;;16.40;4.57;;;4.80;99.90;;;;;;5113822;28;20782;-59
2023/02/06 03:28:40;;;;;;;16.37;4.67;;;4.80;99.90;;;;;;5114108;28;20800;-59
2023/02/06 03:31:10;;;;;;;17.13;5.90;;;4.80;99.70;;;;;;5114092;28;20447;-59
2023/02/06 03:33:43;;;;;;;21.43;4.60;;;4.70;99.50;;;;;;5113851;28;20486;-59
2023/02/06 03:36:15;;;;;;;12.50;4.70;;;4.70;99.40;;;;;;5114140;28;20426;-59
2023/02/06 03:38:44;;;;;;;19.93;4.97;;;4.70;99.40;;;;;;5114000;28;20431;-59
2023/02/06 03:41:12;;;;;;;19.33;4.10;;;4.70;99.40;;;;;;5113890;28;20458;-59
2023/02/06 03:43:41;;;;;;;22.90;5.33;;;4.60;99.50;;;;;;5113419;28;20837;-58
2023/02/06 03:46:11;;;;;;;19.27;4.83;;;4.60;99.60;;;;;;5113832;28;20455;-59
2023/02/06 03:48:41;;;;;;;18.07;4.33;;;4.60;99.60;;;;;;5113910;28;20438;-59
2023/02/06 03:51:11;;;;;;;17.10;3.67;;;4.60;99.60;;;;;;5113910;28;20907;-59
2023/02/06 03:53:40;;;;;;;18.07;5.60;;;4.60;99.70;;;;;;5117881;28;20489;-58
2023/02/06 03:56:12;;;;;;;13.30;4.10;;;4.60;99.60;;;;;;5118106;28;20447;-59
2023/02/06 03:58:39;;;;;;;15.73;4.73;;;4.60;99.50;;;;;;5118904;28;20445;-59
2023/02/06 04:01:07;;;;;;;20.27;4.80;;;4.60;99.50;;;;;;5117942;28;20455;-59
2023/02/06 04:03:34;;;;;;;14.30;4.27;;;4.50;99.30;;;;;;5117498;28;21009;-59
2023/02/06 04:06:01;;;;;;;18.40;5.10;;;4.50;99.20;;;;;;5117934;28;20458;-59
2023/02/06 04:08:28;;;;;;;22.90;5.13;;;4.50;99.20;;;;;;5117440;28;20450;-59
2023/02/06 04:10:55;;;;;;;17.70;4.77;;;4.40;99.20;;;;;;5117598;28;20446;-58
2023/02/06 04:13:23;;;;;;;16.73;5.60;;;4.40;99.40;;;;;;5117580;28;20865;-58
2023/02/06 04:15:50;;;;;;;24.77;5.10;;;4.40;99.60;;;;;;5117731;28;20447;-59
2023/02/06 04:18:16;;;;;;;22.47;6.47;;;4.40;99.60;;;;;;5117690;27;20446;-59
2023/02/06 04:20:43;;;;;;;11.83;4.20;;;4.30;99.50;;;;;;5117728;28;20474;-59
2023/02/06 04:23:10;;;;;;;18.07;4.33;;;4.30;99.60;;;;;;5117540;27;20485;-58
2023/02/06 04:25:36;;;;;;;17.40;5.10;;;4.30;99.80;;;;;;5117574;28;20470;-59
2023/02/06 04:28:04;;;;;;;28.00;5.80;;;4.30;99.90;;;;;;5117625;28;20435;-59
2023/02/06 04:30:32;;;;;;;19.50;6.07;;;4.30;99.90;;;;;;5117470;28;20450;-59
2023/02/06 04:32:59;;;;;;;21.60;4.53;;;4.30;99.90;;;;;;5117308;28;20450;-59
2023/02/06 04:35:26;;;;;;;20.50;4.87;;;4.30;99.90;;;;;;5116986;28;21009;-59
2023/02/06 04:37:53;;;;;;;13.63;4.57;;;4.30;99.90;;;;;;5117261;28;20857;-59
2023/02/06 04:40:20;;;;;;;16.83;5.50;;;4.30;99.90;;;;;;5117036;28;20862;-58
2023/02/06 04:42:47;;;;;;;17.67;5.67;;;4.30;99.90;;;;;;5117400;28;20442;-59
2023/02/06 04:45:14;;;;;;;21.23;6.57;;;4.30;99.90;;;;;;5116998;28;20474;-59
2023/02/06 04:47:42;;;;;;;25.00;6.50;;;4.30;99.90;;;;;;5117088;28;20439;-59
2023/02/06 04:50:10;;;;;;;18.83;5.57;;;4.30;99.90;;;;;;5117065;28;20485;-59
2023/02/06 04:52:37;;;;;;;20.33;6.50;;;4.30;99.90;;;;;;5116975;28;20859;-58
2023/02/06 04:55:04;;;;;;;18.63;5.30;;;4.30;99.90;;;;;;5116823;28;20486;-58
2023/02/06 04:57:30;;;;;;;20.23;5.90;;;4.20;99.90;;;;;;5116917;28;20459;-59
2023/02/06 04:59:57;;;;;;;24.83;6.00;;;4.20;99.90;;;;;;5116922;28;20427;-59
2023/02/06 05:02:24;;;;;;;17.17;5.37;;;4.10;99.90;;;;;;5117015;28;20449;-59
2023/02/06 05:04:52;;;;;;;17.30;5.07;;;4.10;99.90;;;;;;5115655;28;20466;-58
2023/02/06 05:07:19;;;;;;;18.20;6.13;;;4.10;99.90;;;;;;5116855;28;20435;-58
2023/02/06 05:09:46;;;;;;;14.47;6.10;;;4.10;99.90;;;;;;5116805;28;20469;-59
2023/02/06 05:12:13;;;;;;;19.77;5.33;;;4.10;99.90;;;;;;5116843;28;20458;-59
2023/02/06 05:14:40;;;;;;;31.50;6.30;;;4.10;99.90;;;;;;5103880;28;20608;-58
2023/02/06 05:17:06;;;;;;;25.40;6.80;;;4.10;99.90;;;;;;5096717;28;20481;-59
2023/02/06 05:19:33;;;;;;;20.50;5.93;;;4.10;99.90;;;;;;5096188;28;20490;-59
2023/02/06 05:22:01;;;;;;;16.93;5.90;;;4.10;99.90;;;;;;5096027;28;20546;-58
2023/02/06 05:24:28;;;;;;;22.93;6.40;;;4.10;99.90;;;;;;5096137;28;20460;-59
2023/02/06 05:26:57;;;;;;;21.87;5.10;;;4.10;99.90;;;;;;5095700;28;20444;-59
2023/02/06 05:29:24;;;;;;;18.13;6.60;;;4.10;99.90;;;;;;5096085;28;20455;-59
2023/02/06 05:31:51;;;;;;;37.17;6.87;;;4.10;99.90;;;;;;5095919;28;20487;-58
2023/02/06 05:34:18;;;;;;;19.10;6.33;;;4.20;99.90;;;;;;5095991;28;20483;-58
2023/02/06 05:36:45;;;;;;;25.77;6.43;;;4.20;99.90;;;;;;5096037;28;20455;-59
2023/02/06 05:39:13;;;;;;;24.63;6.80;;;4.20;99.90;;;;;;5095919;28;20463;-58
2023/02/06 05:41:40;;;;;;;32.27;7.90;;;4.20;99.90;;;;;;5096123;28;20436;-59
2023/02/06 05:44:06;;;;;;;43.73;8.10;;;4.10;99.90;;;;;;5095356;28;20810;-58
2023/02/06 05:46:33;;;;;;;45.93;8.20;;;4.10;99.90;;;;;;5095456;28;20912;-59
2023/02/06 05:49:00;;;;;;;52.30;8.00;;;4.10;99.90;;;;;;5095791;28;20448;-59
2023/02/06 05:51:26;;;;;;;38.30;7.57;;;4.10;99.90;;;;;;5099361;28;20452;-58
2023/02/06 05:53:53;;;;;;;31.23;6.97;;;4.10;99.90;;;;;;5096073;28;20491;-59
2023/02/06 05:56:21;;;;;;;40.97;9.10;;;4.10;99.90;;;;;;5095251;28;20855;-58
2023/02/06 05:58:48;;;;;;;48.50;7.60;;;4.10;99.90;;;;;;5095101;28;20948;-58
2023/02/06 06:01:15;;;;;;;45.63;8.50;;;4.00;99.90;;;;;;5095197;28;20452;-59
2023/02/06 06:03:42;;;;;;;31.00;8.03;;;4.00;99.90;;;;;;5095474;28;20509;-58
2023/02/06 06:06:09;;;;;;;29.57;7.77;;;3.90;99.90;;;;;;5095485;28;20452;-58
2023/02/06 06:08:37;;;;;;;39.33;8.60;;;3.90;99.90;;;;;;5095082;28;20471;-58
2023/02/06 06:11:03;;;;;;;44.50;7.70;;;3.90;99.90;;;;;;5095082;28;20512;-58
2023/02/06 06:13:32;;;;;;;31.83;8.33;;;3.90;99.90;;;;;;5094948;28;20463;-59
2023/02/06 06:15:59;;;;;;;24.93;7.27;;;3.90;99.90;;;;;;5093361;28;20459;-58
2023/02/06 06:18:26;;;;;;;35.33;7.77;;;4.00;99.90;;;;;;5095111;28;20439;-59
2023/02/06 06:20:54;;;;;;;44.60;8.03;;;4.00;99.90;;;;;;5095759;28;20451;-58
2023/02/06 06:23:20;;;;;;;25.83;8.40;;;4.00;99.90;;;;;;5094851;28;20444;-59
2023/02/06 06:25:47;;;;;;;19.40;8.30;;;4.00;99.90;;;;;;5094654;28;20944;-58
2023/02/06 06:28:14;;;;;;;43.43;9.33;;;4.00;99.90;;;;;;5094651;28;20971;-58
2023/02/06 06:30:43;;;;;;;29.00;8.97;;;4.00;99.90;;;;;;5094871;28;20469;-58
2023/02/06 06:33:10;;;;;;;26.77;8.90;;;4.00;99.90;;;;;;5095038;28;20452;-59
2023/02/06 06:35:37;;;;;;;26.00;8.10;;;4.00;99.90;;;;;;5094767;28;21021;-58
2023/02/06 06:38:04;;;;;;;21.10;7.10;;;4.00;99.90;;;;;;5095225;28;20462;-57
2023/02/06 06:40:30;;;;;;;33.47;9.20;;;4.00;99.90;;;;;;5095058;28;20463;-57
2023/02/06 06:42:57;;;;;;;28.93;8.83;;;4.00;99.90;;;;;;5094271;28;20448;-56
2023/02/06 06:45:24;;;;;;;28.20;9.50;;;4.00;99.90;;;;;;5095973;28;20485;-56
2023/02/06 06:47:52;;;;;;;19.67;7.97;;;4.00;99.90;;;;;;5095584;28;20440;-56
2023/02/06 06:50:18;;;;;;;24.97;9.07;;;4.00;99.90;;;;;;5094412;28;20859;-57
2023/02/06 06:52:45;;;;;;;32.43;9.03;;;4.10;99.90;;;;;;5094417;28;20455;-56
2023/02/06 06:55:12;;;;;;;53.80;10.50;;;4.00;99.90;;;;;;5094335;28;20484;-57
2023/02/06 06:57:38;;;;;;;23.10;9.40;;;4.00;99.90;;;;;;5094234;28;20458;-57
2023/02/06 07:00:06;;;;;;;36.13;12.17;;;4.00;99.90;;;;;;5094530;28;20444;-57
2023/02/06 07:02:33;;;;;;;30.30;11.57;;;4.00;99.90;;;;;;5094152;28;20502;-58
2023/02/06 07:05:01;;;;;;;35.83;10.90;;;4.00;99.90;;;;;;5093750;28;20998;-57
2023/02/06 07:07:28;;;;;;;46.80;13.40;;;4.00;99.90;;;;;;5094098;28;20428;-57
2023/02/06 07:09:55;;;;;;;33.50;14.37;;;4.00;99.90;;;;;;5093652;28;20463;-57
2023/02/06 07:12:22;;;;;;;82.37;15.03;;;4.00;99.90;;;;;;5093884;28;20522;-58
2023/02/06 07:14:49;;;;;;;29.53;12.93;;;4.00;99.90;;;;;;5092532;28;20510;-57
2023/02/06 07:17:15;;;;;;;65.63;14.27;;;4.00;99.90;;;;;;5093901;28;20443;-57
2023/02/06 07:19:46;;;;;;;45.17;13.70;;;4.00;99.90;;;;;;5093526;28;20939;-57
2023/02/06 07:22:15;;;;;;;45.20;14.03;;;4.10;99.90;;;;;;5093756;28;20440;-58
2023/02/06 07:24:42;;;;;;;29.13;13.43;;;4.10;99.90;;;;;;5093823;28;20463;-57
2023/02/06 07:27:09;;;;;;;29.90;13.90;;;4.20;99.90;;;;;;5093028;28;20439;-58
2023/02/06 07:29:36;;;;;;;31.50;14.70;;;4.20;99.90;;;;;;5093789;28;20447;-57
2023/02/06 07:32:04;;;;;;;32.00;14.70;;;4.30;99.90;;;;;;5093769;28;20436;-57
2023/02/06 07:34:30;;;;;;;26.70;14.53;;;4.30;99.90;;;;;;5093516;28;20483;-58
2023/02/06 07:36:58;;;;;;;30.43;15.63;;;4.40;99.90;;;;;;5093631;28;20447;-57
2023/02/06 07:39:28;;;;;;;31.97;15.83;;;4.40;99.90;;;;;;5092713;28;20526;-58
2023/02/06 07:41:55;;;;;;;33.50;14.90;;;4.50;99.90;;;;;;5093328;28;20971;-57
2023/02/06 07:44:21;;;;;;;28.83;13.67;;;4.60;99.90;;;;;;5093731;28;20460;-57
2023/02/06 07:46:50;;;;;;;27.83;14.40;;;4.60;99.90;;;;;;5093521;28;20443;-58
2023/02/06 07:49:17;;;;;;;40.57;13.40;;;4.70;99.90;;;;;;5093498;28;20505;-58
2023/02/06 07:51:45;;;;;;;29.50;13.60;;;4.80;99.90;;;;;;5092326;28;20440;-58
2023/02/06 07:54:12;;;;;;;33.60;15.50;;;4.80;99.90;;;;;;5093354;28;20490;-58
2023/02/06 07:56:40;;;;;;;41.80;15.20;;;4.90;99.90;;;;;;5092360;28;20455;-60
2023/02/06 07:59:07;;;;;;;37.33;14.10;;;4.90;99.90;;;;;;5093591;28;20792;-58
2023/02/06 08:01:34;;;;;;;44.27;16.60;;;4.90;99.90;;;;;;5093349;28;20444;-58
2023/02/06 08:04:01;;;;;;;38.53;15.23;;;5.00;99.90;;;;;;5093081;28;21002;-58
2023/02/06 08:06:27;;;;;;;38.40;13.70;;;5.00;99.90;;;;;;5093584;28;20424;-58
2023/02/06 08:08:55;;;;;;;32.77;13.97;;;5.10;99.90;;;;;;5093137;28;20463;-58
2023/02/06 08:11:24;;;;;;;31.10;15.17;;;5.10;99.90;;;;;;5093059;28;20455;-58
2023/02/06 08:13:52;;;;;;;27.20;13.00;;;5.20;99.90;;;;;;5093158;28;20841;-57
2023/02/06 08:16:21;;;;;;;48.83;12.50;;;5.20;99.90;;;;;;5094214;28;20455;-58
2023/02/06 08:18:48;;;;;;;30.43;13.10;;;5.20;99.90;;;;;;5093320;28;20432;-58
2023/02/06 08:21:19;;;;;;;37.37;13.00;;;5.20;99.90;;;;;;5093248;28;20440;-58
2023/02/06 08:23:46;;;;;;;49.67;12.70;;;5.10;99.90;;;;;;5093137;28;20468;-58
2023/02/06 08:26:15;;;;;;;31.53;14.80;;;5.00;99.90;;;;;;5093453;28;20448;-58
2023/02/06 08:28:43;;;;;;;41.50;12.40;;;4.90;99.90;;;;;;5093150;28;20783;-57
2023/02/06 08:31:14;;;;;;;38.83;14.10;;;4.80;99.90;;;;;;5093746;28;20432;-57
2023/02/06 08:33:41;;;;;;;55.50;14.57;;;4.70;99.90;;;;;;5093023;28;20545;-58
2023/02/06 08:36:09;;;;;;;43.27;11.83;;;4.60;99.90;;;;;;5093358;28;20456;-58
2023/02/06 08:38:36;;;;;;;34.97;11.90;;;4.60;99.90;;;;;;5095625;28;20455;-58
2023/02/06 08:41:04;;;;;;;41.47;14.53;;;4.60;99.90;;;;;;5096785;28;20439;-57
2023/02/06 08:43:30;;;;;;;50.93;15.20;;;4.60;99.90;;;;;;5096676;28;20479;-58
2023/02/06 08:45:58;;;;;;;51.47;15.40;;;4.50;99.90;;;;;;5096704;28;20450;-58
2023/02/06 08:48:26;;;;;;;35.63;15.53;;;4.50;99.90;;;;;;5096734;28;20904;-58
2023/02/06 08:51:02;;;;;;;32.00;16.00;;;4.40;99.90;;;;;;5096670;28;20440;-58
2023/02/06 08:53:28;;;;;;;35.47;12.63;;;4.50;99.90;;;;;;5096591;28;20463;-58
2023/02/06 08:55:58;;;;;;;46.90;12.73;;;4.60;99.90;;;;;;5096520;28;20505;-58
2023/02/06 08:58:25;;;;;;;34.40;11.83;;;4.60;99.90;;;;;;5096596;28;20447;-57
2023/02/06 09:00:52;;;;;;;24.93;11.97;;;4.60;99.90;;;;;;5096445;28;20443;-58
2023/02/06 09:03:19;;;;;;;26.73;11.43;;;4.50;99.90;;;;;;5096423;28;20432;-58
2023/02/06 09:05:48;;;;;;;28.97;10.97;;;4.60;99.90;;;;;;5096172;28;21004;-58
2023/02/06 09:08:14;;;;;;;28.40;10.77;;;4.50;99.90;;;;;;5096197;28;20505;-58
2023/02/06 09:10:41;;;;;;;22.63;10.17;;;4.60;99.90;;;;;;5096545;28;20436;-58
2023/02/06 09:13:08;;;;;;;29.70;10.37;;;4.60;99.90;;;;;;5094929;28;20452;-59
2023/02/06 09:15:35;;;;;;;32.97;10.20;;;4.70;99.90;;;;;;5096070;28;21016;-58
2023/02/06 09:18:01;;;;;;;31.03;10.67;;;4.70;99.90;;;;;;5096041;28;20448;-58
2023/02/06 09:20:28;;;;;;;17.63;10.37;;;4.70;99.90;;;;;;5096325;28;20444;-58
2023/02/06 09:22:56;;;;;;;20.73;11.23;;;4.70;99.90;;;;;;5095698;28;20428;-58
2023/02/06 09:25:23;;;;;;;27.20;11.07;;;4.80;99.90;;;;;;5095877;28;20455;-58
2023/02/06 09:27:49;;;;;;;17.03;9.50;;;4.90;99.90;;;;;;5095859;28;20471;-58
2023/02/06 09:30:16;;;;;;;23.70;10.40;;;5.00;99.90;;;;;;5095820;28;20448;-59
2023/02/06 09:32:43;;;;;;;30.87;12.73;;;5.20;99.90;;;;;;5096445;28;20433;-58
2023/02/06 09:35:10;;;;;;;21.00;12.33;;;5.20;99.90;;;;;;5095737;28;20488;-58
2023/02/06 09:37:36;;;;;;;16.10;10.80;;;5.30;99.90;;;;;;5095769;28;20432;-58
2023/02/06 09:40:05;;;;;;;23.23;12.97;;;5.40;99.90;;;;;;5095641;28;20822;-58
2023/02/06 09:42:35;;;;;;;25.07;13.60;;;5.40;99.90;;;;;;5095670;28;20440;-58
2023/02/06 09:45:11;;;;;;;25.83;14.00;;;5.50;99.90;;;;;;5095753;28;20467;-58
2023/02/06 09:47:40;;;;;;;25.93;13.03;;;5.50;99.90;;;;;;5095682;28;20440;-58
2023/02/06 09:50:18;;;;;;;29.23;12.87;;;5.60;99.90;;;;;;5094330;28;21009;-58
2023/02/06 09:53:02;;;;;;;28.73;16.60;;;5.70;99.90;;;;;;5095470;28;20427;-58
2023/02/06 09:55:36;;;;;;;33.63;14.70;;;5.70;99.90;;;;;;5095272;28;20502;-58
2023/02/06 09:58:15;;;;;;;30.07;15.50;;;5.70;99.90;;;;;;5095436;28;20435;-58
2023/02/06 10:00:48;;;;;;;29.47;16.60;;;5.80;99.90;;;;;;5095314;28;20447;-58
2023/02/06 10:03:32;;;;;;;35.23;17.00;;;5.90;99.90;;;;;;5095480;28;20436;-59
2023/02/06 10:06:12;;;;;;;27.10;14.83;;;5.90;99.90;;;;;;5095231;28;20420;-58
2023/02/06 10:08:42;;;;;;;34.67;17.57;;;6.00;99.90;;;;;;5094895;28;20467;-58
2023/02/06 10:11:17;;;;;;;44.63;17.93;;;6.10;99.90;;;;;;5094986;28;20451;-58
2023/02/06 10:13:48;;;;;;;38.60;16.67;;;6.20;99.90;;;;;;5094914;28;20467;-58
2023/02/06 10:16:32;;;;;;;44.13;17.73;;;6.20;99.90;;;;;;5094960;28;20467;-58
2023/02/06 10:19:03;;;;;;;38.57;17.13;;;6.10;99.90;;;;;;5094653;28;20916;-58
2023/02/06 10:21:35;;;;;;;45.80;18.83;;;6.10;99.90;;;;;;5094839;28;20506;-59
2023/02/06 10:24:08;;;;;;;45.20;21.50;;;6.10;99.90;;;;;;5094820;28;20468;-58
2023/02/06 10:26:39;;;;;;;39.17;18.37;;;6.10;99.90;;;;;;5094814;28;20436;-58
2023/02/06 10:29:10;;;;;;;37.63;17.63;;;6.20;99.90;;;;;;5094704;28;20444;-58
2023/02/06 10:31:49;;;;;;;41.63;20.17;;;6.30;99.90;;;;;;5094415;28;20900;-58
2023/02/06 10:34:59;;;;;;;41.57;19.30;;;6.30;99.90;;;;;;5094604;28;20521;-58
2023/02/06 10:37:52;;;;;;;43.03;20.57;;;6.40;99.90;;;;;;5094623;28;20420;-59
2023/02/06 10:40:31;;;;;;;37.17;18.60;;;6.40;99.90;;;;;;5094583;28;20428;-58
2023/02/06 10:43:06;;;;;;;39.03;17.77;;;6.40;99.90;;;;;;5094271;28;20460;-58
2023/02/06 10:45:41;;;;;;;44.43;19.80;;;6.40;99.90;;;;;;5094621;28;20426;-58
2023/02/06 10:48:19;;;;;;;45.40;18.60;;;6.50;99.90;;;;;;5094424;28;20443;-58
2023/02/06 10:50:50;;;;;;;37.53;18.13;;;6.50;99.90;;;;;;5094378;28;20446;-58
2023/02/06 10:53:21;;;;;;;41.87;19.67;;;6.60;99.90;;;;;;5094285;28;20428;-58
2023/02/06 10:55:54;;;;;;;45.63;19.43;;;6.50;99.90;;;;;;5093887;28;20476;-58
2023/02/06 10:58:26;;;;;;;35.63;17.63;;;6.50;99.90;;;;;;5094288;28;20432;-58
2023/02/06 11:00:55;;;;;;;41.80;18.30;;;6.50;99.90;;;;;;5093776;28;20927;-58
2023/02/06 11:03:26;;;;;;;45.33;20.33;;;6.50;99.90;;;;;;5094092;28;20444;-59
2023/02/06 11:05:53;;;;;;;42.23;19.47;;;6.50;99.90;;;;;;5093842;28;20935;-58
2023/02/06 11:08:25;;;;;;;47.37;21.70;;;6.50;99.90;;;;;;5093900;28;20440;-58
2023/02/06 11:10:53;;;;;;;46.63;19.20;;;6.50;99.90;;;;;;5094051;28;20436;-58
2023/02/06 11:13:26;;;;;;;43.63;16.60;;;6.60;99.90;;;;;;5093882;28;20509;-59
2023/02/06 11:15:58;;;;;;;40.33;21.70;;;6.70;99.90;;;;;;5115075;28;20996;-58
2023/02/06 11:18:29;;;;;;;37.50;17.13;;;6.80;99.90;;;;;;5114306;28;20427;-58
2023/02/06 11:20:56;;;;;;;30.33;15.20;;;6.80;99.90;;;;;;5114225;28;20450;-58
2023/02/06 11:23:24;;;;;;;28.90;14.40;;;6.90;99.90;;;;;;5114452;28;20431;-59
2023/02/06 11:26:02;;;;;;;38.27;14.90;;;7.00;99.90;;;;;;5114193;28;20818;-58
2023/02/06 11:28:33;;;;;;;27.33;15.47;;;7.20;99.90;;;;;;5113796;28;20942;-58
2023/02/06 11:31:02;;;;;;;28.63;15.63;;;7.20;99.90;;;;;;5114044;28;20489;-58
2023/02/06 11:33:41;;;;;;;40.30;20.90;;;7.30;99.90;;;;;;5113924;28;20982;-58
2023/02/06 11:36:23;;;;;;;34.30;21.20;;;7.40;99.90;;;;;;5113969;28;20467;-58
2023/02/06 11:38:59;;;;;;;35.10;17.87;;;7.40;99.90;;;;;;5113687;28;20927;-58
2023/02/06 11:41:26;;;;;;;36.53;18.57;;;7.40;99.90;;;;;;5113982;28;20426;-58
2023/02/06 11:44:01;;;;;;;37.57;21.37;;;7.40;99.90;;;;;;5113837;28;20473;-58
2023/02/06 11:46:29;;;;;;;40.20;18.30;;;7.40;99.90;;;;;;5113934;28;20423;-58
2023/02/06 11:49:04;;;;;;;30.73;17.00;;;7.30;99.90;;;;;;5113843;28;20443;-58
2023/02/06 11:51:47;;;;;;;31.70;16.97;;;7.30;99.90;;;;;;5113901;28;20490;-58
2023/02/06 11:54:21;;;;;;;38.00;17.50;;;7.30;99.90;;;;;;5111969;28;20990;-59
2023/02/06 11:56:57;;;;;;;38.17;18.00;;;7.40;99.90;;;;;;5114010;28;20474;-58
2023/02/06 11:59:26;;;;;;;41.07;19.63;;;7.50;99.90;;;;;;5114237;28;20438;-58
2023/02/06 12:01:53;;;;;;;35.70;17.83;;;7.60;99.90;;;;;;5113942;28;20931;-58
2023/02/06 12:04:24;;;;;;;38.30;21.03;;;7.60;99.90;;;;;;5114020;28;20462;-58
2023/02/06 12:06:58;;;;;;;51.50;25.83;;;7.80;99.90;;;;;;5114316;28;20442;-58
2023/02/06 12:09:25;;;;;;;35.37;21.60;;;7.90;99.90;;;;;;5113589;28;20462;-58
2023/02/06 12:11:56;;;;;;;37.70;20.27;;;8.00;99.90;;;;;;5113613;28;20450;-58
2023/02/06 12:14:31;;;;;;;34.30;18.60;;;8.20;99.90;;;;;;5117655;28;20488;-58
2023/02/06 12:17:00;;;;;;;31.50;19.20;;;8.30;99.30;;;;;;5117728;28;20824;-58
2023/02/06 12:19:32;;;;;;;34.27;19.53;;;8.60;99.00;;;;;;5117391;28;20458;-59
2023/02/06 12:22:02;;;;;;;36.20;18.80;;;8.80;98.80;;;;;;5117450;28;20903;-58
2023/02/06 12:24:33;;;;;;;35.83;18.37;;;9.00;97.80;;;;;;5117616;28;20474;-58
2023/02/06 12:27:09;;;;;;;34.63;18.00;;;9.10;97.50;;;;;;5117293;28;20841;-58
2023/02/06 12:29:41;;;;;;;30.13;14.90;;;9.50;97.20;;;;;;5117885;27;20431;-58
2023/02/06 12:32:14;;;;;;;26.87;15.73;;;10.10;94.90;;;;;;5117125;28;21016;-58
2023/02/06 12:34:52;;;;;;;26.13;12.97;;;10.60;93.70;;;;;;5117422;28;20494;-58
2023/02/06 12:37:25;;;;;;;30.17;14.77;;;11.20;91.40;;;;;;5117301;28;20894;-58
2023/02/06 12:39:52;;;;;;;22.33;12.50;;;11.70;90.10;;;;;;5117341;28;20442;-58
2023/02/06 12:42:42;;;;;;;27.77;11.23;;;12.40;88.00;;;;;;5117367;27;20442;-58
2023/02/06 12:45:32;;;;;;;27.47;13.30;;;13.10;84.80;;;;;;5117219;28;20470;-58
2023/02/06 12:48:05;;;;;;;22.50;11.87;;;13.60;77.40;;;;;;5117288;27;20470;-59
2023/02/06 12:50:38;;;;;;;21.57;12.47;;;13.50;74.30;;;;;;5117152;28;20435;-59
2023/02/06 12:53:12;;;;;;;21.33;11.40;;;13.10;74.30;;;;;;5117206;28;20423;-58
2023/02/06 12:55:44;;;;;;;19.47;12.53;;;12.70;75.60;;;;;;5117041;28;20478;-59
2023/02/06 12:58:26;;;;;;;27.63;12.80;;;12.40;77.50;;;;;;5117555;28;20430;-59